createdAt,value
2022-09-03T00:00:03.931Z,90.90
2022-09-03T00:05:11.763Z,91.20
2022-09-03T00:10:14.725Z,91.40
2022-09-03T00:15:18.408Z,92.10
2022-09-03T00:20:20.107Z,92.70
2022-09-03T00:25:22.144Z,92.70
2022-09-03T00:30:26.305Z,93.00
2022-09-03T00:35:28.626Z,93.30
2022-09-03T00:40:54.550Z,94.10
2022-09-03T00:46:05.227Z,94.00
2022-09-03T00:51:14.698Z,94.70
2022-09-03T00:56:22.053Z,94.90
2022-09-03T01:01:25.165Z,95.70
2022-09-03T01:06:32.632Z,95.50
2022-09-03T01:11:41.316Z,95.60
2022-09-03T01:16:48.666Z,96.20
2022-09-03T01:22:07.239Z,96.40
2022-09-03T01:27:20.578Z,96.80
2022-09-03T01:32:29.502Z,96.90
2022-09-03T01:37:36.658Z,97.70
2022-09-03T01:42:46.070Z,97.80
2022-09-03T01:47:53.247Z,98.20
2022-09-03T01:52:56.266Z,98.60
2022-09-03T01:57:59.007Z,98.60
2022-09-03T02:03:05.664Z,98.90
2022-09-03T02:08:05.423Z,99.50
2022-09-03T02:13:08.887Z,99.90
2022-09-03T02:18:17.854Z,99.90
2022-09-03T02:23:16.503Z,99.90
2022-09-03T02:28:17.150Z,99.90
2022-09-03T02:33:17.493Z,99.90
2022-09-03T02:38:20.054Z,99.90
2022-09-03T02:43:26.013Z,99.90
2022-09-03T02:48:26.232Z,99.90
2022-09-03T02:53:24.250Z,99.90
2022-09-03T02:58:22.263Z,99.90
2022-09-03T03:03:20.650Z,99.90
2022-09-03T03:08:23.966Z,99.90
2022-09-03T03:13:22.771Z,99.90
2022-09-03T03:18:20.836Z,99.90
2022-09-03T03:23:20.268Z,99.90
2022-09-03T03:28:19.866Z,99.90
2022-09-03T03:33:18.037Z,99.90
2022-09-03T03:38:16.862Z,99.90
2022-09-03T03:43:16.308Z,99.90
2022-09-03T03:48:14.364Z,99.90
2022-09-03T03:53:12.358Z,99.90
2022-09-03T03:58:10.542Z,99.90
2022-09-03T04:03:10.058Z,99.90
2022-09-03T04:08:08.130Z,99.90
2022-09-03T04:13:06.146Z,99.90
2022-09-03T04:18:04.288Z,99.90
2022-09-03T04:23:04.400Z,99.90
2022-09-03T04:28:03.814Z,99.90
2022-09-03T04:33:01.868Z,99.90
2022-09-03T04:37:59.847Z,99.90
2022-09-03T04:43:00.331Z,99.90
2022-09-03T04:47:59.650Z,99.90
2022-09-03T04:53:05.725Z,99.90
2022-09-03T04:58:08.382Z,99.90
2022-09-03T05:03:06.540Z,99.90
2022-09-03T05:08:05.820Z,99.90
2022-09-03T05:13:06.712Z,99.90
2022-09-03T05:18:04.776Z,99.90
2022-09-03T05:23:04.104Z,99.90
2022-09-03T05:28:02.893Z,99.90
2022-09-03T05:33:02.409Z,99.90
2022-09-03T05:38:01.714Z,99.90
2022-09-03T05:42:59.823Z,99.90
2022-09-03T05:48:02.639Z,99.90
2022-09-03T05:53:00.794Z,99.90
2022-09-03T05:57:58.833Z,99.90
2022-09-03T06:02:58.178Z,99.90
2022-09-03T06:07:57.755Z,99.90
2022-09-03T06:12:56.085Z,99.90
2022-09-03T06:17:54.117Z,99.90
2022-09-03T06:22:53.523Z,99.90
2022-09-03T06:27:53.055Z,99.90
2022-09-03T06:32:52.166Z,99.90
2022-09-03T06:37:52.086Z,99.90
2022-09-03T06:43:03.296Z,99.90
2022-09-03T06:48:01.367Z,99.90
2022-09-03T06:52:59.426Z,99.90
2022-09-03T06:57:58.846Z,99.90
2022-09-03T07:02:59.795Z,99.90
2022-09-03T07:07:58.270Z,99.90
2022-09-03T07:12:57.813Z,99.90
2022-09-03T07:17:55.990Z,99.90
2022-09-03T07:22:56.430Z,99.90
2022-09-03T07:27:54.629Z,99.90
2022-09-03T07:32:54.897Z,99.90
2022-09-03T07:37:55.639Z,99.90
2022-09-03T07:42:58.938Z,99.90
2022-09-03T07:47:58.765Z,99.90
2022-09-03T07:52:59.312Z,99.90
2022-09-03T07:57:58.379Z,99.90
2022-09-03T08:02:59.661Z,99.90
2022-09-03T08:07:57.707Z,99.90
2022-09-03T08:12:55.831Z,99.90
2022-09-03T08:17:53.900Z,99.90
2022-09-03T08:23:03.653Z,99.90
2022-09-03T08:28:01.759Z,99.90
2022-09-03T08:33:04.850Z,99.90
2022-09-03T08:38:07.072Z,99.90
2022-09-03T08:43:17.459Z,99.90
2022-09-03T08:48:21.740Z,99.90
2022-09-03T08:53:28.971Z,99.90
2022-09-03T08:58:28.822Z,99.90
2022-09-03T09:03:39.405Z,95.00
2022-09-03T09:08:47.387Z,87.30
2022-09-03T09:13:53.225Z,89.10
2022-09-03T09:19:04.891Z,82.40
2022-09-03T09:24:10.482Z,73.40
2022-09-03T09:29:11.527Z,73.50
2022-09-03T09:34:09.865Z,69.10
2022-09-03T09:39:11.942Z,63.90
2022-09-03T09:44:09.981Z,58.40
2022-09-03T09:49:30.980Z,56.50
2022-09-03T09:54:30.304Z,53.70
2022-09-03T09:59:28.338Z,52.20
2022-09-03T10:04:33.336Z,52.70
2022-09-03T10:09:34.468Z,52.20
2022-09-03T10:14:38.615Z,50.20
2022-09-03T10:20:04.602Z,47.70
2022-09-03T10:25:05.665Z,45.20
2022-09-03T10:30:03.946Z,47.00
2022-09-03T10:35:12.244Z,47.80
2022-09-03T10:40:25.014Z,49.70
2022-09-03T10:45:37.783Z,51.60
2022-09-03T10:50:48.414Z,52.90
2022-09-03T10:55:52.987Z,55.30
2022-09-03T11:00:55.341Z,56.30
2022-09-03T11:06:02.981Z,56.50
2022-09-03T11:11:11.432Z,57.30
2022-09-03T11:16:14.525Z,56.70
2022-09-03T11:21:15.634Z,55.30
2022-09-03T11:26:18.385Z,55.10
2022-09-03T11:31:32.136Z,55.60
2022-09-03T11:36:32.937Z,55.00
2022-09-03T11:41:36.715Z,57.00
2022-09-03T11:46:34.923Z,54.40
2022-09-03T11:51:37.702Z,54.40
2022-09-03T11:56:37.297Z,54.20
2022-09-03T12:01:37.644Z,53.50
2022-09-03T12:07:06.134Z,51.60
2022-09-03T12:12:16.418Z,51.80
2022-09-03T12:17:25.147Z,53.90
2022-09-03T12:22:25.528Z,53.60
2022-09-03T12:27:27.074Z,53.50
2022-09-03T12:32:26.385Z,53.90
2022-09-03T12:42:46.126Z,54.70
2022-09-03T12:47:45.073Z,53.90
2022-09-03T12:52:46.303Z,54.20
2022-09-03T12:57:49.098Z,54.20
2022-09-03T13:02:53.434Z,53.60
2022-09-03T13:07:55.398Z,54.00
2022-09-03T13:13:00.260Z,54.80
2022-09-03T13:18:26.022Z,53.90
2022-09-03T13:23:44.946Z,54.70
2022-09-03T13:28:58.518Z,54.20
2022-09-03T13:34:01.071Z,54.70
2022-09-03T13:39:05.934Z,54.20
2022-09-03T13:44:11.504Z,55.10
2022-09-03T13:49:40.970Z,55.00
2022-09-03T13:54:49.919Z,54.60
2022-09-03T13:59:53.223Z,55.50
2022-09-03T14:05:03.024Z,55.00
2022-09-03T14:10:08.425Z,54.50
2022-09-03T14:15:17.915Z,54.70
2022-09-03T14:20:23.353Z,55.90
2022-09-03T14:25:23.169Z,55.00
2022-09-03T14:30:34.401Z,55.10
2022-09-03T14:35:39.569Z,55.20
2022-09-03T14:40:44.824Z,55.00
2022-09-03T14:46:05.802Z,55.10
2022-09-03T14:51:20.042Z,54.80
2022-09-03T14:56:29.905Z,54.60
2022-09-03T15:01:38.777Z,54.70
2022-09-03T15:06:52.700Z,53.60
2022-09-03T15:11:55.453Z,52.60
2022-09-03T15:17:01.350Z,52.60
2022-09-03T15:22:09.717Z,52.20
2022-09-03T15:27:20.694Z,52.40
2022-09-03T15:32:39.775Z,53.40
2022-09-03T15:37:45.521Z,53.20
2022-09-03T15:42:45.055Z,52.70
2022-09-03T15:47:54.425Z,52.20
2022-09-03T15:53:00.149Z,52.20
2022-09-03T15:58:08.230Z,52.20
2022-09-03T16:03:11.861Z,52.60
2022-09-03T16:08:20.668Z,53.50
2022-09-03T16:13:39.990Z,51.70
2022-09-03T16:18:45.630Z,53.10
2022-09-03T16:23:53.218Z,52.90
2022-09-03T16:28:58.453Z,52.30
2022-09-03T16:34:08.385Z,52.50
2022-09-03T16:39:17.858Z,52.50
2022-09-03T16:44:25.281Z,53.70
2022-09-03T16:49:47.885Z,53.70
2022-09-03T16:55:00.691Z,53.10
2022-09-03T17:00:11.593Z,52.00
2022-09-03T17:05:38.024Z,50.10
2022-09-03T17:10:43.228Z,49.90
2022-09-03T17:15:45.888Z,49.20
2022-09-03T17:20:52.994Z,50.40
2022-09-03T17:25:55.310Z,50.90
2022-09-03T17:30:58.724Z,52.50
2022-09-03T17:36:07.532Z,53.70
2022-09-03T17:41:16.984Z,53.70
2022-09-03T17:46:29.085Z,54.30
2022-09-03T17:51:37.020Z,55.10
2022-09-03T17:56:46.086Z,55.70
2022-09-03T18:01:52.707Z,56.20
2022-09-03T18:06:59.141Z,56.60
2022-09-03T18:12:08.700Z,57.20
2022-09-03T18:17:12.884Z,57.00
2022-09-03T18:22:29.746Z,57.30
2022-09-03T18:27:52.077Z,57.90
2022-09-03T18:33:07.667Z,57.90
2022-09-03T18:38:24.684Z,58.50
2022-09-03T18:43:46.244Z,59.10
2022-09-03T18:49:09.898Z,59.30
2022-09-03T18:55:03.954Z,59.20
2022-09-03T19:00:28.219Z,59.80
2022-09-03T19:05:54.595Z,59.50
2022-09-03T19:11:19.453Z,59.80
2022-09-03T19:16:44.115Z,59.70
2022-09-03T19:22:06.342Z,60.20
2022-09-03T19:27:53.076Z,60.40
2022-09-03T19:33:20.784Z,60.80
2022-09-03T19:38:44.364Z,61.00
2022-09-03T19:44:14.330Z,60.20
2022-09-03T19:49:39.286Z,60.60
2022-09-03T19:54:55.586Z,61.40
2022-09-03T20:00:12.738Z,61.70
2022-09-03T20:05:32.728Z,61.70
2022-09-03T20:10:29.809Z,61.90
2022-09-03T20:15:40.054Z,61.80
2022-09-03T20:20:47.398Z,62.00
2022-09-03T20:26:07.285Z,62.20
2022-09-03T20:31:16.595Z,62.20
2022-09-03T20:36:25.402Z,62.30
2022-09-03T20:41:31.737Z,63.00
2022-09-03T20:46:46.491Z,63.20
2022-09-03T20:51:53.268Z,62.90
2022-09-03T20:57:09.065Z,62.90
2022-09-03T21:02:18.541Z,63.60
2022-09-03T21:07:24.861Z,63.90
2022-09-03T21:12:32.427Z,63.70
2022-09-03T21:17:43.177Z,63.40
2022-09-03T21:22:53.607Z,63.60
2022-09-03T21:27:57.302Z,63.90
2022-09-03T21:33:01.585Z,64.20
2022-09-03T21:38:05.311Z,64.20
2022-09-03T21:43:10.788Z,64.50
2022-09-03T21:48:15.010Z,64.40
2022-09-03T21:53:20.090Z,64.80
2022-09-03T21:58:30.266Z,64.60
2022-09-03T22:03:30.048Z,64.50
2022-09-03T22:08:32.729Z,64.90
2022-09-03T22:13:33.122Z,65.60
2022-09-03T22:18:35.858Z,65.80
2022-09-03T22:23:43.868Z,65.70
2022-09-03T22:28:49.268Z,66.70
2022-09-03T22:33:55.444Z,66.70
2022-09-03T22:39:16.204Z,66.70
2022-09-03T22:44:26.173Z,66.70
2022-09-03T22:49:36.306Z,67.40
2022-09-03T22:54:47.373Z,67.60
2022-09-03T22:59:55.495Z,67.60
2022-09-03T23:05:04.165Z,68.20
2022-09-03T23:10:06.455Z,68.50
2022-09-03T23:15:11.470Z,68.70
2022-09-03T23:20:16.159Z,69.20
2022-09-03T23:25:19.503Z,69.60
2022-09-03T23:30:17.753Z,70.00
2022-09-03T23:35:19.490Z,70.00
2022-09-03T23:40:43.873Z,70.30
2022-09-03T23:45:48.354Z,70.70
2022-09-03T23:50:59.189Z,71.40
2022-09-03T23:56:12.501Z,71.70
